Nearby METAR Reports

 

EGKA - Shoreham-By-Sea, United Kingdom
Distance from station: SW 9mi, 14km
Updated: Tue, 26-Sep-2017 5:20pm BST
Haze, Partly cloudy
Haze, Partly cloudy
 Wind from SSE
Wind: SSE 5 mph , 7 km/h
Temperature: 17°C
Dew Point: 15°C
Humidity: 88%
Barometer: 1021 hPa
Summary: Haze
Clouds: Partly Cloudy
Visibility: 2 miles , 4 km
2017/09/26 16:20 EGKA 261620Z 15004KT 4000 HZ NSC 17/15 Q1021
EGKK - London/Gatwick A, United Kingdom
Distance from station: N 14mi, 22km
Updated: Tue, 26-Sep-2017 5:20pm BST
Few Clouds
Few Clouds
 Wind from ESE
Wind: ESE 6 mph , 9 km/h
Temperature: 18°C
Dew Point: 14°C
Humidity: 78%
Barometer: 1021 hPa
Clouds: Few Clouds
Visibility: 6 miles , 9 km
Cloud details: Few Clouds 1158 m
2017/09/26 16:20 EGKK 261620Z 12005KT 9000 FEW038 18/14 Q1021
 
EGKB - Biggin Hill, United Kingdom
Distance from station: NNE 28mi, 44km
Updated: Tue, 26-Sep-2017 5:20pm BST
Partly Cloudy
Partly Cloudy
 Wind from SE
Wind: SE 6 mph , 9 km/h
Temperature: 16°C
Dew Point: 14°C
Humidity: 88%
Barometer: 1022 hPa
Clouds: Partly Cloudy
Visibility: 5 miles , 8 km
2017/09/26 16:20 EGKB 261620Z 13005KT 100V160 8000 NSC 16/14 Q1022
EGLF - Farnborough, United Kingdom
Distance from station: NW 35mi, 56km
Updated: Tue, 26-Sep-2017 5:20pm BST
Few Clouds
Few Clouds
 Wind from varies
Wind: varies 3 mph , 6 km/h
Temperature: 18°C
Dew Point: 14°C
Humidity: 78%
Barometer: 1021 hPa
Clouds: Few Clouds
Visibility: 6 miles , 10 km
Cloud details: Few Clouds 945 m
2017/09/26 16:20 EGLF 261620Z VRB03KT 9999 FEW031 18/14 Q1021
 
EGMD - Lydd Airport, United Kingdom
Distance from station: E 48mi, 77km
Updated: Tue, 26-Sep-2017 5:20pm BST
Haze, Partly cloudy
Haze, Partly cloudy
 Wind from E
Wind: E 8 mph , 13 km/h
Temperature: 17°C
Dew Point: 15°C
Humidity: 88%
Barometer: 1022 hPa
Summary: Haze
Clouds: Partly Cloudy
Visibility: 3 miles , 5 km
2017/09/26 16:20 EGMD 261620Z 10007KT 5000 HZ NSC 17/15 Q1022
EGHI - Southampton Wx C, United Kingdom
Distance from station: W 50mi, 82km
Updated: Tue, 26-Sep-2017 5:20pm BST
Partly Cloudy
Partly Cloudy
 Wind from S
Wind: S 2 mph , 4 km/h
Temperature: 17°C
Dew Point: 13°C
Humidity: 77%
Barometer: 1021 hPa
Clouds: Partly Cloudy
Visibility: 5 miles , 8 km
Cloud details: Partly Cloudy 1158 m
2017/09/26 16:20 EGHI 261620Z 17002KT 8000 SCT038 17/13 Q1021

Metar display script from Saratoga-Weather.org